N4MK KMCO-KRDU
Flight info
| Callsign | N4MK |
|---|---|
| Flight time | 1h 20m |
| Altitude | 41000 |
| Route | FATHE4 VIYAP Q69 GURGE PETTO DMSTR2 |
| Aircraft | C700/M-VGDW/C |
Departure
| Time | 2026-04-22 00:17 |
|---|---|
| Airport | Orlando International Airport (KMCO) |
Arrival
| Time | 2026-04-22 01:38 |
|---|---|
| Airport | Raleigh-Durham International Airport (KRDU) |
| Time | Latitude | Longitude | Altitude | Speed | Heading |
|---|---|---|---|---|---|
| 2026-04-22 00:07 | 28.42578 | -81.33085 | 96 ft | 0 kts | 0° |
| 2026-04-22 00:13 | 28.42596 | -81.33070 | 96 ft | 1 kts | 54° |
| 2026-04-22 00:14 | 28.42601 | -81.33024 | 96 ft | 10 kts | 94° |
| 2026-04-22 00:14 | 28.42591 | -81.32940 | 96 ft | 12 kts | 115° |
| 2026-04-22 00:14 | 28.42497 | -81.32918 | 95 ft | 18 kts | 179° |
| 2026-04-22 00:14 | 28.42359 | -81.32913 | 95 ft | 21 kts | 180° |
| 2026-04-22 00:15 | 28.42213 | -81.32913 | 97 ft | 21 kts | 177° |
| 2026-04-22 00:15 | 28.42054 | -81.32909 | 97 ft | 24 kts | 183° |
| 2026-04-22 00:15 | 28.41893 | -81.32916 | 102 ft | 19 kts | 176° |
| 2026-04-22 00:15 | 28.41759 | -81.32910 | 104 ft | 20 kts | 179° |
| 2026-04-22 00:16 | 28.41610 | -81.32909 | 102 ft | 19 kts | 179° |
| 2026-04-22 00:16 | 28.41535 | -81.32840 | 102 ft | 15 kts | 87° |
| 2026-04-22 00:16 | 28.41539 | -81.32711 | 103 ft | 17 kts | 83° |
| 2026-04-22 00:16 | 28.41588 | -81.32665 | 103 ft | 0 kts | 360° |
| 2026-04-22 00:17 | 28.41753 | -81.32664 | 100 ft | 66 kts | 359° |
| 2026-04-22 00:17 | 28.42556 | -81.32666 | 183 ft | 153 kts | 2° |
| 2026-04-22 00:17 | 28.43722 | -81.32712 | 938 ft | 186 kts | 7° |
| 2026-04-22 00:17 | 28.45122 | -81.32659 | 2061 ft | 210 kts | 6° |
| 2026-04-22 00:18 | 28.46628 | -81.32696 | 3436 ft | 225 kts | 2° |
| 2026-04-22 00:18 | 28.48276 | -81.32751 | 4821 ft | 242 kts | 3° |
| 2026-04-22 00:18 | 28.49992 | -81.32767 | 6441 ft | 251 kts | 2° |
| 2026-04-22 00:18 | 28.51754 | -81.32755 | 8064 ft | 255 kts | 2° |
| 2026-04-22 00:19 | 28.53516 | -81.32746 | 9711 ft | 257 kts | 1° |
| 2026-04-22 00:19 | 28.55371 | -81.32688 | 11018 ft | 272 kts | 6° |
| 2026-04-22 00:19 | 28.57320 | -81.32434 | 11898 ft | 300 kts | 8° |
| 2026-04-22 00:19 | 28.59464 | -81.32064 | 13019 ft | 317 kts | 9° |
| 2026-04-22 00:20 | 28.61612 | -81.31622 | 14853 ft | 304 kts | 10° |
| 2026-04-22 00:20 | 28.63789 | -81.31253 | 15812 ft | 330 kts | 4° |
| 2026-04-22 00:20 | 28.66123 | -81.31108 | 17070 ft | 336 kts | 0° |
| 2026-04-22 00:20 | 28.68484 | -81.30937 | 18372 ft | 344 kts | 3° |
| 2026-04-22 00:21 | 28.70876 | -81.30582 | 19498 ft | 351 kts | 5° |
| 2026-04-22 00:21 | 28.73299 | -81.30200 | 20654 ft | 355 kts | 3° |
| 2026-04-22 00:21 | 28.75794 | -81.29894 | 21761 ft | 359 kts | 1° |
| 2026-04-22 00:21 | 28.78271 | -81.29603 | 22821 ft | 364 kts | 1° |
| 2026-04-22 00:22 | 28.80823 | -81.29268 | 23867 ft | 370 kts | 1° |
| 2026-04-22 00:22 | 28.83415 | -81.28937 | 24742 ft | 374 kts | 359° |
| 2026-04-22 00:22 | 28.85972 | -81.28994 | 25624 ft | 373 kts | 350° |
| 2026-04-22 00:22 | 28.88616 | -81.29238 | 26499 ft | 379 kts | 351° |
| 2026-04-22 00:23 | 28.91243 | -81.29452 | 27305 ft | 384 kts | 351° |
| 2026-04-22 00:23 | 28.93913 | -81.29672 | 28132 ft | 389 kts | 351° |
| 2026-04-22 00:23 | 28.96647 | -81.29911 | 28942 ft | 395 kts | 351° |
| 2026-04-22 00:23 | 28.99413 | -81.30157 | 29746 ft | 400 kts | 350° |
| 2026-04-22 00:24 | 29.02189 | -81.30474 | 30502 ft | 405 kts | 349° |
| 2026-04-22 00:24 | 29.04986 | -81.30783 | 31248 ft | 408 kts | 350° |
| 2026-04-22 00:24 | 29.07838 | -81.31090 | 32002 ft | 410 kts | 350° |
| 2026-04-22 00:24 | 29.10656 | -81.31398 | 32712 ft | 412 kts | 351° |
| 2026-04-22 00:25 | 29.13543 | -81.31583 | 33390 ft | 415 kts | 353° |
| 2026-04-22 00:25 | 29.16452 | -81.31747 | 34061 ft | 417 kts | 352° |
| 2026-04-22 00:25 | 29.19333 | -81.31921 | 34606 ft | 420 kts | 352° |
| 2026-04-22 00:25 | 29.22285 | -81.32107 | 35023 ft | 425 kts | 352° |
| 2026-04-22 00:26 | 29.25237 | -81.32285 | 35434 ft | 430 kts | 352° |
| 2026-04-22 00:26 | 29.28258 | -81.32462 | 35839 ft | 435 kts | 352° |
| 2026-04-22 00:26 | 29.31291 | -81.32642 | 36367 ft | 435 kts | 351° |
| 2026-04-22 00:26 | 29.34289 | -81.32824 | 36872 ft | 436 kts | 351° |
| 2026-04-22 00:27 | 29.37336 | -81.33009 | 37346 ft | 437 kts | 351° |
| 2026-04-22 00:27 | 29.40351 | -81.33190 | 37812 ft | 437 kts | 351° |
| 2026-04-22 00:27 | 29.43411 | -81.33373 | 38263 ft | 438 kts | 350° |
| 2026-04-22 00:27 | 29.46464 | -81.33558 | 38681 ft | 438 kts | 350° |
| 2026-04-22 00:28 | 29.49497 | -81.33742 | 39053 ft | 439 kts | 350° |
| 2026-04-22 00:28 | 29.52524 | -81.33924 | 39364 ft | 439 kts | 350° |
| 2026-04-22 00:28 | 29.55602 | -81.34110 | 39683 ft | 439 kts | 350° |
| 2026-04-22 00:28 | 29.58630 | -81.34292 | 39990 ft | 439 kts | 350° |
| 2026-04-22 00:29 | 29.61687 | -81.34478 | 40295 ft | 439 kts | 350° |
| 2026-04-22 00:29 | 29.64758 | -81.34664 | 40583 ft | 439 kts | 350° |
| 2026-04-22 00:29 | 29.67810 | -81.34841 | 40863 ft | 439 kts | 350° |
| 2026-04-22 00:29 | 29.70849 | -81.35008 | 41148 ft | 439 kts | 350° |
| 2026-04-22 00:30 | 29.73885 | -81.35180 | 41300 ft | 442 kts | 350° |
| 2026-04-22 00:30 | 29.80108 | -81.35547 | 41309 ft | 455 kts | 350° |
| 2026-04-22 00:31 | 29.86545 | -81.35909 | 41320 ft | 464 kts | 350° |
| 2026-04-22 00:31 | 29.92970 | -81.36279 | 41318 ft | 463 kts | 350° |
| 2026-04-22 00:32 | 29.99389 | -81.36647 | 41321 ft | 459 kts | 350° |
| 2026-04-22 00:32 | 30.05753 | -81.37017 | 41323 ft | 461 kts | 350° |
| 2026-04-22 00:33 | 30.12195 | -81.37387 | 41322 ft | 464 kts | 350° |
| 2026-04-22 00:33 | 30.18628 | -81.37758 | 41313 ft | 462 kts | 350° |
| 2026-04-22 00:34 | 30.25035 | -81.38129 | 41311 ft | 459 kts | 350° |
| 2026-04-22 00:34 | 30.31402 | -81.38499 | 41313 ft | 459 kts | 350° |
| 2026-04-22 00:35 | 30.37811 | -81.38871 | 41309 ft | 462 kts | 350° |
| 2026-04-22 00:35 | 30.44219 | -81.39242 | 41313 ft | 462 kts | 350° |
| 2026-04-22 00:36 | 30.50593 | -81.39594 | 41314 ft | 459 kts | 351° |
| 2026-04-22 00:36 | 30.56953 | -81.39919 | 41331 ft | 457 kts | 350° |
| 2026-04-22 00:37 | 30.63361 | -81.40268 | 41332 ft | 461 kts | 351° |
| 2026-04-22 00:37 | 30.69762 | -81.40600 | 41331 ft | 462 kts | 350° |
| 2026-04-22 00:38 | 30.76176 | -81.40943 | 41325 ft | 459 kts | 350° |
| 2026-04-22 00:38 | 30.82530 | -81.41279 | 41324 ft | 457 kts | 350° |
| 2026-04-22 00:39 | 30.88881 | -81.41619 | 41313 ft | 459 kts | 350° |
| 2026-04-22 00:39 | 30.95265 | -81.41959 | 41314 ft | 461 kts | 350° |
| 2026-04-22 00:40 | 31.01670 | -81.42300 | 41314 ft | 461 kts | 350° |
| 2026-04-22 00:40 | 31.08081 | -81.42642 | 41314 ft | 458 kts | 350° |
| 2026-04-22 00:41 | 31.14283 | -81.42974 | 41311 ft | 456 kts | 350° |
| 2026-04-22 00:41 | 31.20615 | -81.43315 | 41314 ft | 458 kts | 350° |
| 2026-04-22 00:42 | 31.27014 | -81.43598 | 41333 ft | 462 kts | 352° |
| 2026-04-22 00:42 | 31.33438 | -81.43644 | 41332 ft | 461 kts | 352° |
| 2026-04-22 00:43 | 31.39826 | -81.43737 | 41325 ft | 457 kts | 352° |
| 2026-04-22 00:43 | 31.46209 | -81.43586 | 41324 ft | 465 kts | 359° |
| 2026-04-22 00:44 | 31.52591 | -81.41777 | 41323 ft | 482 kts | 12° |
| 2026-04-22 00:44 | 31.57871 | -81.39595 | 41321 ft | 482 kts | 12° |
| 2026-04-22 00:45 | 31.64178 | -81.37017 | 41320 ft | 479 kts | 12° |
| 2026-04-22 00:45 | 31.70453 | -81.34427 | 41315 ft | 477 kts | 12° |
| 2026-04-22 00:46 | 31.76749 | -81.31841 | 41318 ft | 480 kts | 12° |
| 2026-04-22 00:46 | 31.83062 | -81.29231 | 41299 ft | 482 kts | 12° |
| 2026-04-22 00:47 | 31.89367 | -81.26626 | 41292 ft | 480 kts | 12° |
| 2026-04-22 00:47 | 31.95715 | -81.24236 | 41280 ft | 469 kts | 4° |
| 2026-04-22 00:48 | 32.02095 | -81.23465 | 41288 ft | 460 kts | 354° |
| 2026-04-22 00:48 | 32.08479 | -81.23141 | 41324 ft | 463 kts | 355° |
| 2026-04-22 00:49 | 32.14920 | -81.22823 | 41325 ft | 463 kts | 355° |
| 2026-04-22 00:49 | 32.21377 | -81.22500 | 41323 ft | 461 kts | 355° |
| 2026-04-22 00:50 | 32.27750 | -81.22183 | 41324 ft | 459 kts | 354° |
| 2026-04-22 00:50 | 32.34127 | -81.21867 | 41326 ft | 461 kts | 355° |
| 2026-04-22 00:51 | 32.40532 | -81.21546 | 41330 ft | 463 kts | 355° |
| 2026-04-22 00:51 | 32.47017 | -81.21222 | 41332 ft | 464 kts | 355° |
| 2026-04-22 00:52 | 32.53451 | -81.20345 | 41330 ft | 466 kts | 360° |
| 2026-04-22 00:52 | 32.59865 | -81.19386 | 41332 ft | 464 kts | 359° |
| 2026-04-22 00:53 | 32.66277 | -81.18371 | 41330 ft | 466 kts | 360° |
| 2026-04-22 00:53 | 32.72696 | -81.17381 | 41331 ft | 468 kts | 360° |
| 2026-04-22 00:54 | 32.79157 | -81.16368 | 41321 ft | 467 kts | 360° |
| 2026-04-22 00:54 | 32.85575 | -81.15368 | 41313 ft | 464 kts | 359° |
| 2026-04-22 00:55 | 32.91952 | -81.14372 | 41316 ft | 464 kts | 360° |
| 2026-04-22 00:55 | 33.01642 | -81.12750 | 41311 ft | 474 kts | 5° |
| 2026-04-22 00:56 | 33.07932 | -81.10087 | 41313 ft | 489 kts | 19° |
| 2026-04-22 00:56 | 33.13799 | -81.05837 | 41314 ft | 493 kts | 25° |
| 2026-04-22 00:57 | 33.19601 | -81.01497 | 41317 ft | 493 kts | 25° |
| 2026-04-22 00:57 | 33.25390 | -80.97122 | 41320 ft | 495 kts | 25° |
| 2026-04-22 00:58 | 33.31240 | -80.92712 | 41324 ft | 497 kts | 25° |
| 2026-04-22 00:58 | 33.37067 | -80.88301 | 41323 ft | 495 kts | 25° |
| 2026-04-22 00:59 | 33.42868 | -80.83912 | 41323 ft | 493 kts | 25° |
| 2026-04-22 00:59 | 33.48652 | -80.79525 | 41323 ft | 493 kts | 25° |
| 2026-04-22 01:00 | 33.54499 | -80.75084 | 41329 ft | 496 kts | 25° |
| 2026-04-22 01:00 | 33.60295 | -80.70672 | 41320 ft | 497 kts | 25° |
| 2026-04-22 01:01 | 33.66117 | -80.66235 | 41319 ft | 494 kts | 25° |
| 2026-04-22 01:01 | 33.71919 | -80.61806 | 41303 ft | 491 kts | 25° |
| 2026-04-22 01:02 | 33.77683 | -80.57402 | 41302 ft | 493 kts | 25° |
| 2026-04-22 01:02 | 33.80589 | -80.55177 | 41196 ft | 496 kts | 25° |
| 2026-04-22 01:02 | 33.83514 | -80.52934 | 40568 ft | 492 kts | 25° |
| 2026-04-22 01:03 | 33.86348 | -80.50753 | 39935 ft | 482 kts | 25° |
| 2026-04-22 01:03 | 33.89152 | -80.48599 | 39305 ft | 472 kts | 25° |
| 2026-04-22 01:03 | 33.91886 | -80.46505 | 38638 ft | 463 kts | 25° |
| 2026-04-22 01:03 | 33.94577 | -80.44437 | 38017 ft | 453 kts | 25° |
| 2026-04-22 01:04 | 33.97221 | -80.42403 | 37429 ft | 449 kts | 24° |
| 2026-04-22 01:04 | 33.99851 | -80.40388 | 36878 ft | 456 kts | 25° |
| 2026-04-22 01:04 | 34.02582 | -80.38294 | 36267 ft | 466 kts | 25° |
| 2026-04-22 01:04 | 34.05307 | -80.36184 | 35662 ft | 469 kts | 25° |
| 2026-04-22 01:05 | 34.08056 | -80.34051 | 35035 ft | 468 kts | 25° |
| 2026-04-22 01:05 | 34.10809 | -80.31928 | 34414 ft | 466 kts | 25° |
| 2026-04-22 01:05 | 34.13504 | -80.29853 | 33765 ft | 464 kts | 25° |
| 2026-04-22 01:05 | 34.16219 | -80.27754 | 33150 ft | 466 kts | 26° |
| 2026-04-22 01:06 | 34.18973 | -80.25623 | 32532 ft | 472 kts | 26° |
| 2026-04-22 01:06 | 34.21760 | -80.23464 | 31894 ft | 476 kts | 26° |
| 2026-04-22 01:06 | 34.24545 | -80.21301 | 31266 ft | 475 kts | 27° |
| 2026-04-22 01:06 | 34.27346 | -80.19128 | 30635 ft | 475 kts | 27° |
| 2026-04-22 01:07 | 34.30094 | -80.16996 | 29970 ft | 473 kts | 27° |
| 2026-04-22 01:07 | 34.32859 | -80.14845 | 29344 ft | 467 kts | 27° |
| 2026-04-22 01:07 | 34.35586 | -80.12722 | 28725 ft | 460 kts | 27° |
| 2026-04-22 01:07 | 34.38226 | -80.10668 | 28132 ft | 454 kts | 27° |
| 2026-04-22 01:08 | 34.40883 | -80.08601 | 27532 ft | 448 kts | 27° |
| 2026-04-22 01:08 | 34.43462 | -80.06591 | 26946 ft | 442 kts | 27° |
| 2026-04-22 01:08 | 34.46043 | -80.04578 | 26365 ft | 438 kts | 27° |
| 2026-04-22 01:08 | 34.48607 | -80.02577 | 25790 ft | 434 kts | 27° |
| 2026-04-22 01:09 | 34.51116 | -80.00618 | 25231 ft | 430 kts | 27° |
| 2026-04-22 01:09 | 34.53644 | -79.98641 | 24659 ft | 427 kts | 27° |
| 2026-04-22 01:09 | 34.56105 | -79.96714 | 24107 ft | 421 kts | 27° |
| 2026-04-22 01:09 | 34.58561 | -79.94792 | 23487 ft | 416 kts | 27° |
| 2026-04-22 01:10 | 34.60983 | -79.92895 | 22936 ft | 409 kts | 27° |
| 2026-04-22 01:10 | 34.63323 | -79.91058 | 22407 ft | 395 kts | 27° |
| 2026-04-22 01:10 | 34.65587 | -79.89276 | 21891 ft | 379 kts | 27° |
| 2026-04-22 01:10 | 34.67767 | -79.87570 | 21394 ft | 370 kts | 27° |
| 2026-04-22 01:11 | 34.69849 | -79.85813 | 21293 ft | 365 kts | 30° |
| 2026-04-22 01:11 | 34.71965 | -79.83937 | 21292 ft | 379 kts | 30° |
| 2026-04-22 01:11 | 34.74079 | -79.82075 | 21292 ft | 377 kts | 30° |
| 2026-04-22 01:11 | 34.76192 | -79.80214 | 21292 ft | 376 kts | 30° |
| 2026-04-22 01:12 | 34.78330 | -79.78330 | 21304 ft | 378 kts | 30° |
| 2026-04-22 01:12 | 34.80439 | -79.76468 | 21303 ft | 379 kts | 30° |
| 2026-04-22 01:12 | 34.82587 | -79.74567 | 21304 ft | 378 kts | 30° |
| 2026-04-22 01:12 | 34.84717 | -79.72683 | 21306 ft | 377 kts | 30° |
| 2026-04-22 01:13 | 34.86824 | -79.70820 | 21290 ft | 377 kts | 30° |
| 2026-04-22 01:13 | 34.88943 | -79.68948 | 21092 ft | 379 kts | 30° |
| 2026-04-22 01:13 | 34.91082 | -79.67049 | 20823 ft | 376 kts | 30° |
| 2026-04-22 01:13 | 34.93201 | -79.65168 | 20533 ft | 373 kts | 30° |
| 2026-04-22 01:14 | 34.95281 | -79.63324 | 20251 ft | 371 kts | 30° |
| 2026-04-22 01:14 | 34.97347 | -79.61491 | 19937 ft | 368 kts | 30° |
| 2026-04-22 01:14 | 34.99434 | -79.59638 | 19649 ft | 367 kts | 30° |
| 2026-04-22 01:14 | 35.01470 | -79.57829 | 19369 ft | 365 kts | 30° |
| 2026-04-22 01:15 | 35.03524 | -79.56002 | 19088 ft | 364 kts | 30° |
| 2026-04-22 01:15 | 35.05552 | -79.54198 | 18807 ft | 362 kts | 30° |
| 2026-04-22 01:15 | 35.07597 | -79.52376 | 18521 ft | 361 kts | 30° |
| 2026-04-22 01:15 | 35.09647 | -79.50690 | 18213 ft | 354 kts | 24° |
| 2026-04-22 01:16 | 35.11874 | -79.49460 | 17933 ft | 347 kts | 15° |
| 2026-04-22 01:16 | 35.14197 | -79.48693 | 17662 ft | 340 kts | 6° |
| 2026-04-22 01:16 | 35.16521 | -79.48344 | 17424 ft | 337 kts | 1° |
| 2026-04-22 01:16 | 35.18843 | -79.48039 | 17166 ft | 337 kts | 2° |
| 2026-04-22 01:17 | 35.21179 | -79.47712 | 16906 ft | 337 kts | 2° |
| 2026-04-22 01:17 | 35.23514 | -79.47395 | 16645 ft | 337 kts | 2° |
| 2026-04-22 01:17 | 35.25825 | -79.47089 | 16383 ft | 335 kts | 2° |
| 2026-04-22 01:17 | 35.28156 | -79.46775 | 16123 ft | 333 kts | 2° |
| 2026-04-22 01:18 | 35.30437 | -79.46467 | 15869 ft | 332 kts | 3° |
| 2026-04-22 01:18 | 35.32740 | -79.46075 | 15605 ft | 333 kts | 8° |
| 2026-04-22 01:18 | 35.34960 | -79.45199 | 15348 ft | 336 kts | 18° |
| 2026-04-22 01:18 | 35.37024 | -79.43867 | 15089 ft | 340 kts | 28° |
| 2026-04-22 01:19 | 35.38919 | -79.42091 | 14826 ft | 341 kts | 36° |
| 2026-04-22 01:19 | 35.40730 | -79.40246 | 14417 ft | 343 kts | 35° |
| 2026-04-22 01:19 | 35.42573 | -79.38409 | 14059 ft | 336 kts | 35° |
| 2026-04-22 01:19 | 35.44356 | -79.36617 | 13749 ft | 331 kts | 36° |
| 2026-04-22 01:20 | 35.46139 | -79.34815 | 13473 ft | 331 kts | 36° |
| 2026-04-22 01:20 | 35.47912 | -79.33027 | 13223 ft | 333 kts | 36° |
| 2026-04-22 01:20 | 35.49713 | -79.31210 | 12966 ft | 333 kts | 36° |
| 2026-04-22 01:20 | 35.51498 | -79.29406 | 12703 ft | 331 kts | 36° |
| 2026-04-22 01:21 | 35.53260 | -79.27626 | 12449 ft | 330 kts | 36° |
| 2026-04-22 01:21 | 35.55041 | -79.25824 | 12191 ft | 328 kts | 36° |
| 2026-04-22 01:21 | 35.56791 | -79.24054 | 11939 ft | 327 kts | 36° |
| 2026-04-22 01:21 | 35.58554 | -79.22271 | 11682 ft | 326 kts | 36° |
| 2026-04-22 01:22 | 35.60301 | -79.20501 | 11431 ft | 325 kts | 36° |
| 2026-04-22 01:22 | 35.62048 | -79.18729 | 11181 ft | 325 kts | 36° |
| 2026-04-22 01:22 | 35.63641 | -79.16831 | 10926 ft | 317 kts | 47° |
| 2026-04-22 01:22 | 35.64913 | -79.14689 | 10680 ft | 299 kts | 50° |
| 2026-04-22 01:23 | 35.66112 | -79.12697 | 10460 ft | 287 kts | 49° |
| 2026-04-22 01:23 | 35.67317 | -79.10715 | 10071 ft | 292 kts | 49° |
| 2026-04-22 01:23 | 35.68535 | -79.08682 | 9538 ft | 294 kts | 50° |
| 2026-04-22 01:23 | 35.69738 | -79.06650 | 9020 ft | 291 kts | 50° |
| 2026-04-22 01:24 | 35.70918 | -79.04675 | 8521 ft | 288 kts | 50° |
| 2026-04-22 01:24 | 35.72112 | -79.02678 | 8017 ft | 286 kts | 50° |
| 2026-04-22 01:24 | 35.73279 | -79.00723 | 7525 ft | 285 kts | 50° |
| 2026-04-22 01:24 | 35.74457 | -78.98746 | 7040 ft | 284 kts | 50° |
| 2026-04-22 01:25 | 35.75615 | -78.96802 | 6546 ft | 284 kts | 50° |
| 2026-04-22 01:25 | 35.76780 | -78.94848 | 6038 ft | 284 kts | 51° |
| 2026-04-22 01:25 | 35.77953 | -78.92875 | 5537 ft | 283 kts | 51° |
| 2026-04-22 01:25 | 35.78895 | -78.90778 | 5033 ft | 284 kts | 68° |
| 2026-04-22 01:26 | 35.79361 | -78.88410 | 4511 ft | 283 kts | 83° |
| 2026-04-22 01:26 | 35.79574 | -78.86022 | 4011 ft | 280 kts | 81° |
| 2026-04-22 01:26 | 35.79759 | -78.84454 | 3680 ft | 277 kts | 84° |
| 2026-04-22 01:26 | 35.79976 | -78.82082 | 3176 ft | 275 kts | 86° |
| 2026-04-22 01:27 | 35.80176 | -78.79819 | 3006 ft | 261 kts | 85° |
| 2026-04-22 01:27 | 35.80395 | -78.77651 | 2995 ft | 243 kts | 85° |
| 2026-04-22 01:27 | 35.80595 | -78.75641 | 2993 ft | 228 kts | 86° |
| 2026-04-22 01:27 | 35.80776 | -78.73767 | 2994 ft | 218 kts | 85° |
| 2026-04-22 01:28 | 35.81226 | -78.71985 | 2992 ft | 221 kts | 63° |
| 2026-04-22 01:28 | 35.82150 | -78.70482 | 2998 ft | 224 kts | 45° |
| 2026-04-22 01:28 | 35.83282 | -78.69133 | 2995 ft | 225 kts | 45° |
| 2026-04-22 01:28 | 35.84380 | -78.67757 | 2999 ft | 227 kts | 46° |
| 2026-04-22 01:29 | 35.85492 | -78.66366 | 2997 ft | 227 kts | 45° |
| 2026-04-22 01:29 | 35.86612 | -78.64987 | 3000 ft | 226 kts | 45° |
| 2026-04-22 01:29 | 35.87711 | -78.63623 | 3000 ft | 226 kts | 45° |
| 2026-04-22 01:29 | 35.88811 | -78.62257 | 2995 ft | 226 kts | 45° |
| 2026-04-22 01:30 | 35.89925 | -78.60876 | 3000 ft | 226 kts | 45° |
| 2026-04-22 01:30 | 35.91035 | -78.59498 | 2998 ft | 226 kts | 45° |
| 2026-04-22 01:30 | 35.92136 | -78.58133 | 3001 ft | 227 kts | 45° |
| 2026-04-22 01:30 | 35.93267 | -78.56727 | 3005 ft | 234 kts | 45° |
| 2026-04-22 01:31 | 35.94526 | -78.55431 | 2999 ft | 236 kts | 25° |
| 2026-04-22 01:31 | 35.96109 | -78.55132 | 3006 ft | 229 kts | 347° |
| 2026-04-22 01:31 | 35.97476 | -78.55981 | 3011 ft | 220 kts | 315° |
| 2026-04-22 01:31 | 35.98566 | -78.57279 | 3020 ft | 219 kts | 311° |
| 2026-04-22 01:32 | 35.99657 | -78.58608 | 3013 ft | 219 kts | 311° |
| 2026-04-22 01:32 | 36.00732 | -78.59923 | 2994 ft | 220 kts | 310° |
| 2026-04-22 01:32 | 36.01803 | -78.61254 | 3006 ft | 215 kts | 311° |
| 2026-04-22 01:32 | 36.02631 | -78.62722 | 2995 ft | 205 kts | 282° |
| 2026-04-22 01:33 | 36.02535 | -78.64393 | 3001 ft | 200 kts | 244° |
| 2026-04-22 01:33 | 36.01584 | -78.65589 | 2997 ft | 193 kts | 211° |
| 2026-04-22 01:33 | 36.00440 | -78.66340 | 2997 ft | 177 kts | 209° |
| 2026-04-22 01:33 | 35.99388 | -78.67008 | 2993 ft | 167 kts | 206° |
| 2026-04-22 01:34 | 35.98282 | -78.67496 | 2989 ft | 165 kts | 199° |
| 2026-04-22 01:34 | 35.97244 | -78.67919 | 2935 ft | 155 kts | 201° |
| 2026-04-22 01:34 | 35.96226 | -78.68359 | 2708 ft | 152 kts | 203° |
| 2026-04-22 01:34 | 35.95396 | -78.68869 | 2497 ft | 126 kts | 213° |
| 2026-04-22 01:35 | 35.94713 | -78.69608 | 2339 ft | 134 kts | 221° |
| 2026-04-22 01:35 | 35.94017 | -78.70394 | 2159 ft | 138 kts | 223° |
| 2026-04-22 01:35 | 35.93333 | -78.71225 | 1991 ft | 138 kts | 222° |
| 2026-04-22 01:35 | 35.92681 | -78.72011 | 1790 ft | 124 kts | 223° |
| 2026-04-22 01:36 | 35.92098 | -78.72737 | 1627 ft | 120 kts | 222° |
| 2026-04-22 01:36 | 35.91490 | -78.73484 | 1452 ft | 123 kts | 223° |
| 2026-04-22 01:36 | 35.90913 | -78.74224 | 1294 ft | 118 kts | 222° |
| 2026-04-22 01:36 | 35.90295 | -78.74949 | 1140 ft | 127 kts | 222° |
| 2026-04-22 01:37 | 35.89672 | -78.75744 | 1003 ft | 125 kts | 225° |
| 2026-04-22 01:37 | 35.89091 | -78.76513 | 802 ft | 118 kts | 224° |
| 2026-04-22 01:37 | 35.88508 | -78.77229 | 635 ft | 123 kts | 222° |
| 2026-04-22 01:37 | 35.87943 | -78.77930 | 448 ft | 111 kts | 223° |
| 2026-04-22 01:38 | 35.87572 | -78.78379 | 428 ft | 14 kts | 239° |
| 2026-04-22 01:38 | 35.87616 | -78.78413 | 429 ft | 5 kts | 351° |
| 2026-04-22 01:38 | 35.87632 | -78.78422 | 425 ft | 10 kts | 333° |
| 2026-04-22 01:38 | 35.87717 | -78.78380 | 422 ft | 10 kts | 45° |
| 2026-04-22 01:39 | 35.87787 | -78.78291 | 424 ft | 32 kts | 45° |